sensor_id;sensor_type;location;lat;lon;timestamp;temperature;humidity
41939;DHT22;23057;48.554;14.454;2022-07-03T00:02:14;11.80;99.90
41939;DHT22;23057;48.554;14.454;2022-07-03T00:04:45;11.90;99.90
41939;DHT22;23057;48.554;14.454;2022-07-03T00:07:16;11.90;99.90
41939;DHT22;23057;48.554;14.454;2022-07-03T00:09:47;11.90;99.90
41939;DHT22;23057;48.554;14.454;2022-07-03T00:12:18;12.00;99.90
41939;DHT22;23057;48.554;14.454;2022-07-03T00:14:49;12.00;99.90
41939;DHT22;23057;48.554;14.454;2022-07-03T00:17:22;11.90;99.90
41939;DHT22;23057;48.554;14.454;2022-07-03T00:19:54;11.90;99.90
41939;DHT22;23057;48.554;14.454;2022-07-03T00:22:26;11.90;99.90
41939;DHT22;23057;48.554;14.454;2022-07-03T00:25:05;11.80;99.90
41939;DHT22;23057;48.554;14.454;2022-07-03T00:27:43;11.70;99.90
41939;DHT22;23057;48.554;14.454;2022-07-03T00:30:16;11.60;99.90
41939;DHT22;23057;48.554;14.454;2022-07-03T00:32:47;11.60;1.00
41939;DHT22;23057;48.554;14.454;2022-07-03T00:35:19;11.60;1.00
41939;DHT22;23057;48.554;14.454;2022-07-03T00:37:51;11.50;1.00
41939;DHT22;23057;48.554;14.454;2022-07-03T00:40:22;11.50;10.50
41939;DHT22;23057;48.554;14.454;2022-07-03T00:42:55;11.50;8.80
41939;DHT22;23057;48.554;14.454;2022-07-03T00:45:33;11.50;1.00
41939;DHT22;23057;48.554;14.454;2022-07-03T00:48:06;11.60;1.00
41939;DHT22;23057;48.554;14.454;2022-07-03T00:50:49;11.60;1.00
41939;DHT22;23057;48.554;14.454;2022-07-03T00:53:28;11.50;1.00
41939;DHT22;23057;48.554;14.454;2022-07-03T00:56:05;11.60;1.00
41939;DHT22;23057;48.554;14.454;2022-07-03T00:58:42;11.60;1.00
41939;DHT22;23057;48.554;14.454;2022-07-03T01:01:16;11.70;1.00
41939;DHT22;23057;48.554;14.454;2022-07-03T01:10:54;11.60;1.00
41939;DHT22;23057;48.554;14.454;2022-07-03T01:19:40;11.50;1.00
41939;DHT22;23057;48.554;14.454;2022-07-03T01:25:25;11.50;1.00
41939;DHT22;23057;48.554;14.454;2022-07-03T01:28:16;11.50;1.00
41939;DHT22;23057;48.554;14.454;2022-07-03T01:30:53;11.50;1.00
41939;DHT22;23057;48.554;14.454;2022-07-03T01:33:26;11.40;1.00
41939;DHT22;23057;48.554;14.454;2022-07-03T01:36:09;11.40;1.00
41939;DHT22;23057;48.554;14.454;2022-07-03T01:38:48;11.40;1.00
41939;DHT22;23057;48.554;14.454;2022-07-03T01:41:21;11.30;1.00
41939;DHT22;23057;48.554;14.454;2022-07-03T01:44:01;11.30;1.00
41939;DHT22;23057;48.554;14.454;2022-07-03T01:46:32;11.30;25.00
41939;DHT22;23057;48.554;14.454;2022-07-03T01:49:06;11.20;6.40
41939;DHT22;23057;48.554;14.454;2022-07-03T01:51:43;11.20;3.70
41939;DHT22;23057;48.554;14.454;2022-07-03T01:54:20;11.10;1.00
41939;DHT22;23057;48.554;14.454;2022-07-03T01:56:58;11.10;45.60
41939;DHT22;23057;48.554;14.454;2022-07-03T01:59:33;11.10;86.40
41939;DHT22;23057;48.554;14.454;2022-07-03T02:02:29;11.10;99.90
41939;DHT22;23057;48.554;14.454;2022-07-03T02:08:20;11.00;99.90
41939;DHT22;23057;48.554;14.454;2022-07-03T02:11:21;11.00;99.90
41939;DHT22;23057;48.554;14.454;2022-07-03T02:14:05;11.00;99.90
41939;DHT22;23057;48.554;14.454;2022-07-03T02:22:40;10.90;99.90
41939;DHT22;23057;48.554;14.454;2022-07-03T02:25:34;10.90;99.90
41939;DHT22;23057;48.554;14.454;2022-07-03T02:28:22;10.90;99.90
41939;DHT22;23057;48.554;14.454;2022-07-03T02:31:10;10.90;99.90
41939;DHT22;23057;48.554;14.454;2022-07-03T02:33:47;10.90;99.90
41939;DHT22;23057;48.554;14.454;2022-07-03T02:36:28;10.70;99.90
41939;DHT22;23057;48.554;14.454;2022-07-03T02:39:10;10.70;99.90
41939;DHT22;23057;48.554;14.454;2022-07-03T02:41:58;10.70;99.90
41939;DHT22;23057;48.554;14.454;2022-07-03T02:44:46;10.80;99.90
41939;DHT22;23057;48.554;14.454;2022-07-03T02:50:22;10.90;99.90
41939;DHT22;23057;48.554;14.454;2022-07-03T02:53:08;10.90;99.90
41939;DHT22;23057;48.554;14.454;2022-07-03T02:56:15;11.00;99.90
41939;DHT22;23057;48.554;14.454;2022-07-03T02:59:06;11.00;99.90
41939;DHT22;23057;48.554;14.454;2022-07-03T03:01:57;11.00;99.90
41939;DHT22;23057;48.554;14.454;2022-07-03T03:04:42;11.00;99.90
41939;DHT22;23057;48.554;14.454;2022-07-03T03:07:29;11.00;99.90
41939;DHT22;23057;48.554;14.454;2022-07-03T03:10:18;11.00;99.90
41939;DHT22;23057;48.554;14.454;2022-07-03T03:13:20;11.10;99.90
41939;DHT22;23057;48.554;14.454;2022-07-03T03:18:39;11.20;58.70
41939;DHT22;23057;48.554;14.454;2022-07-03T03:21:16;11.20;1.00
41939;DHT22;23057;48.554;14.454;2022-07-03T03:23:51;11.30;1.00
41939;DHT22;23057;48.554;14.454;2022-07-03T03:26:25;11.60;99.90
41939;DHT22;23057;48.554;14.454;2022-07-03T03:29:02;12.40;64.50
41939;DHT22;23057;48.554;14.454;2022-07-03T03:31:33;13.10;99.90
41939;DHT22;23057;48.554;14.454;2022-07-03T03:34:04;13.60;99.90
41939;DHT22;23057;48.554;14.454;2022-07-03T03:36:36;14.20;99.90
41939;DHT22;23057;48.554;14.454;2022-07-03T03:39:08;14.50;1.00
41939;DHT22;23057;48.554;14.454;2022-07-03T03:41:39;14.70;1.00
41939;DHT22;23057;48.554;14.454;2022-07-03T03:44:10;14.70;1.00
41939;DHT22;23057;48.554;14.454;2022-07-03T03:46:41;15.30;1.00
41939;DHT22;23057;48.554;14.454;2022-07-03T03:49:12;15.60;1.00
41939;DHT22;23057;48.554;14.454;2022-07-03T03:51:44;15.80;1.00
41939;DHT22;23057;48.554;14.454;2022-07-03T03:54:15;16.20;1.00
41939;DHT22;23057;48.554;14.454;2022-07-03T03:56:46;16.70;1.00
41939;DHT22;23057;48.554;14.454;2022-07-03T03:59:17;17.10;99.90
41939;DHT22;23057;48.554;14.454;2022-07-03T04:01:48;17.30;99.90
41939;DHT22;23057;48.554;14.454;2022-07-03T04:04:19;17.60;99.90
41939;DHT22;23057;48.554;14.454;2022-07-03T04:06:52;18.00;99.90
41939;DHT22;23057;48.554;14.454;2022-07-03T04:09:23;18.30;99.90
41939;DHT22;23057;48.554;14.454;2022-07-03T04:11:54;18.60;99.90
41939;DHT22;23057;48.554;14.454;2022-07-03T04:14:25;19.00;99.90
41939;DHT22;23057;48.554;14.454;2022-07-03T04:16:56;19.20;99.90
41939;DHT22;23057;48.554;14.454;2022-07-03T04:19:27;19.00;99.90
41939;DHT22;23057;48.554;14.454;2022-07-03T04:21:58;19.20;99.90
41939;DHT22;23057;48.554;14.454;2022-07-03T04:24:29;19.40;99.90
41939;DHT22;23057;48.554;14.454;2022-07-03T04:27:00;19.90;99.90
41939;DHT22;23057;48.554;14.454;2022-07-03T04:29:31;20.10;99.90
41939;DHT22;23057;48.554;14.454;2022-07-03T04:32:02;20.30;99.90
41939;DHT22;23057;48.554;14.454;2022-07-03T04:34:33;20.80;99.90
41939;DHT22;23057;48.554;14.454;2022-07-03T04:37:04;21.50;99.90
41939;DHT22;23057;48.554;14.454;2022-07-03T04:39:35;22.70;99.90
41939;DHT22;23057;48.554;14.454;2022-07-03T04:42:06;23.30;99.90
41939;DHT22;23057;48.554;14.454;2022-07-03T04:44:37;23.50;99.90
41939;DHT22;23057;48.554;14.454;2022-07-03T04:47:08;23.70;99.90
41939;DHT22;23057;48.554;14.454;2022-07-03T04:49:39;23.00;99.90
41939;DHT22;23057;48.554;14.454;2022-07-03T04:52:10;22.20;99.90
41939;DHT22;23057;48.554;14.454;2022-07-03T04:54:41;21.90;99.90
41939;DHT22;23057;48.554;14.454;2022-07-03T04:57:12;21.00;99.90
41939;DHT22;23057;48.554;14.454;2022-07-03T04:59:43;19.40;99.90
41939;DHT22;23057;48.554;14.454;2022-07-03T05:02:14;18.70;99.90
41939;DHT22;23057;48.554;14.454;2022-07-03T05:04:45;18.10;99.90
41939;DHT22;23057;48.554;14.454;2022-07-03T05:07:16;17.80;1.00
41939;DHT22;23057;48.554;14.454;2022-07-03T05:09:46;17.60;1.00
41939;DHT22;23057;48.554;14.454;2022-07-03T05:12:17;17.90;1.00
41939;DHT22;23057;48.554;14.454;2022-07-03T05:14:48;20.10;99.90
41939;DHT22;23057;48.554;14.454;2022-07-03T05:17:19;21.60;99.90
41939;DHT22;23057;48.554;14.454;2022-07-03T05:19:51;22.00;99.90
41939;DHT22;23057;48.554;14.454;2022-07-03T05:22:42;22.10;99.90
41939;DHT22;23057;48.554;14.454;2022-07-03T05:25:12;22.50;99.90
41939;DHT22;23057;48.554;14.454;2022-07-03T05:27:44;23.20;99.90
41939;DHT22;23057;48.554;14.454;2022-07-03T05:30:17;23.90;99.90
41939;DHT22;23057;48.554;14.454;2022-07-03T05:32:48;23.50;99.90
41939;DHT22;23057;48.554;14.454;2022-07-03T05:35:20;23.90;99.90
41939;DHT22;23057;48.554;14.454;2022-07-03T05:37:52;24.20;99.90
41939;DHT22;23057;48.554;14.454;2022-07-03T05:40:23;23.30;99.90
41939;DHT22;23057;48.554;14.454;2022-07-03T05:42:54;22.90;99.90
41939;DHT22;23057;48.554;14.454;2022-07-03T05:45:25;21.80;99.90
41939;DHT22;23057;48.554;14.454;2022-07-03T05:47:56;23.20;99.90
41939;DHT22;23057;48.554;14.454;2022-07-03T05:50:27;24.30;99.90
41939;DHT22;23057;48.554;14.454;2022-07-03T05:52:58;24.20;99.90
41939;DHT22;23057;48.554;14.454;2022-07-03T05:55:29;24.40;99.90
41939;DHT22;23057;48.554;14.454;2022-07-03T05:58:00;25.00;99.90
41939;DHT22;23057;48.554;14.454;2022-07-03T06:00:31;25.10;99.90
41939;DHT22;23057;48.554;14.454;2022-07-03T06:03:02;24.70;99.90
41939;DHT22;23057;48.554;14.454;2022-07-03T06:05:33;23.50;99.90
41939;DHT22;23057;48.554;14.454;2022-07-03T06:08:05;23.30;99.90
41939;DHT22;23057;48.554;14.454;2022-07-03T06:10:36;22.50;99.90
41939;DHT22;23057;48.554;14.454;2022-07-03T06:13:07;22.80;99.90
41939;DHT22;23057;48.554;14.454;2022-07-03T06:15:38;23.80;99.90
41939;DHT22;23057;48.554;14.454;2022-07-03T06:18:09;21.90;99.90
41939;DHT22;23057;48.554;14.454;2022-07-03T06:20:40;21.70;99.90
41939;DHT22;23057;48.554;14.454;2022-07-03T06:23:11;23.30;99.90
41939;DHT22;23057;48.554;14.454;2022-07-03T06:25:42;24.70;99.90
41939;DHT22;23057;48.554;14.454;2022-07-03T06:28:13;25.80;99.90
41939;DHT22;23057;48.554;14.454;2022-07-03T06:30:44;25.70;99.90
41939;DHT22;23057;48.554;14.454;2022-07-03T06:33:15;26.70;99.90
41939;DHT22;23057;48.554;14.454;2022-07-03T06:35:46;25.90;99.90
41939;DHT22;23057;48.554;14.454;2022-07-03T06:38:17;25.20;99.90
41939;DHT22;23057;48.554;14.454;2022-07-03T06:40:48;25.10;99.90
41939;DHT22;23057;48.554;14.454;2022-07-03T06:43:19;25.90;99.90
41939;DHT22;23057;48.554;14.454;2022-07-03T06:45:50;26.00;99.90
41939;DHT22;23057;48.554;14.454;2022-07-03T06:48:21;25.30;99.90
41939;DHT22;23057;48.554;14.454;2022-07-03T06:50:52;25.10;99.90
41939;DHT22;23057;48.554;14.454;2022-07-03T06:53:23;25.00;99.90
41939;DHT22;23057;48.554;14.454;2022-07-03T06:55:55;24.70;99.90
41939;DHT22;23057;48.554;14.454;2022-07-03T06:58:26;24.00;99.90
41939;DHT22;23057;48.554;14.454;2022-07-03T07:00:57;24.60;99.90
41939;DHT22;23057;48.554;14.454;2022-07-03T07:03:28;24.40;99.90
41939;DHT22;23057;48.554;14.454;2022-07-03T07:05:59;24.40;99.90
41939;DHT22;23057;48.554;14.454;2022-07-03T07:08:30;24.20;99.90
41939;DHT22;23057;48.554;14.454;2022-07-03T07:11:01;23.80;99.90
41939;DHT22;23057;48.554;14.454;2022-07-03T07:13:32;24.20;99.90
41939;DHT22;23057;48.554;14.454;2022-07-03T07:16:03;23.70;99.90
41939;DHT22;23057;48.554;14.454;2022-07-03T07:18:34;23.60;99.90
41939;DHT22;23057;48.554;14.454;2022-07-03T07:21:05;23.90;99.90
41939;DHT22;23057;48.554;14.454;2022-07-03T07:23:36;24.20;99.90
41939;DHT22;23057;48.554;14.454;2022-07-03T07:26:07;23.30;99.90
41939;DHT22;23057;48.554;14.454;2022-07-03T07:28:38;23.00;99.90
41939;DHT22;23057;48.554;14.454;2022-07-03T07:31:09;22.80;99.90
41939;DHT22;23057;48.554;14.454;2022-07-03T07:33:40;22.40;99.90
41939;DHT22;23057;48.554;14.454;2022-07-03T07:36:11;22.50;99.90
41939;DHT22;23057;48.554;14.454;2022-07-03T07:38:42;22.50;99.90
41939;DHT22;23057;48.554;14.454;2022-07-03T07:41:13;22.30;99.90
41939;DHT22;23057;48.554;14.454;2022-07-03T07:43:43;21.60;99.90
41939;DHT22;23057;48.554;14.454;2022-07-03T07:46:14;21.40;99.90
41939;DHT22;23057;48.554;14.454;2022-07-03T07:48:45;21.20;99.90
41939;DHT22;23057;48.554;14.454;2022-07-03T07:51:16;21.70;99.90
41939;DHT22;23057;48.554;14.454;2022-07-03T07:53:47;21.90;99.90
41939;DHT22;23057;48.554;14.454;2022-07-03T07:56:19;22.40;99.90
41939;DHT22;23057;48.554;14.454;2022-07-03T07:58:50;22.70;99.90
41939;DHT22;23057;48.554;14.454;2022-07-03T08:01:22;23.00;99.90
41939;DHT22;23057;48.554;14.454;2022-07-03T08:04:11;22.70;99.90
41939;DHT22;23057;48.554;14.454;2022-07-03T08:07:01;22.80;99.90
41939;DHT22;23057;48.554;14.454;2022-07-03T08:09:32;23.40;99.90
41939;DHT22;23057;48.554;14.454;2022-07-03T08:12:03;23.60;99.90
41939;DHT22;23057;48.554;14.454;2022-07-03T08:14:34;24.10;99.90
41939;DHT22;23057;48.554;14.454;2022-07-03T08:17:06;24.00;99.90
41939;DHT22;23057;48.554;14.454;2022-07-03T08:19:37;24.30;99.90
41939;DHT22;23057;48.554;14.454;2022-07-03T08:22:08;23.70;99.90
41939;DHT22;23057;48.554;14.454;2022-07-03T08:24:39;22.70;99.90
41939;DHT22;23057;48.554;14.454;2022-07-03T08:27:10;22.00;99.90
41939;DHT22;23057;48.554;14.454;2022-07-03T08:29:41;21.80;99.90
41939;DHT22;23057;48.554;14.454;2022-07-03T08:32:12;22.10;99.90
41939;DHT22;23057;48.554;14.454;2022-07-03T08:34:43;22.10;99.90
41939;DHT22;23057;48.554;14.454;2022-07-03T08:37:14;22.70;99.90
41939;DHT22;23057;48.554;14.454;2022-07-03T08:39:45;22.90;99.90
41939;DHT22;23057;48.554;14.454;2022-07-03T08:42:16;22.10;99.90
41939;DHT22;23057;48.554;14.454;2022-07-03T08:44:50;22.70;99.90
41939;DHT22;23057;48.554;14.454;2022-07-03T08:47:23;23.30;99.90
41939;DHT22;23057;48.554;14.454;2022-07-03T08:49:58;23.60;99.90
41939;DHT22;23057;48.554;14.454;2022-07-03T08:52:33;24.00;99.90
41939;DHT22;23057;48.554;14.454;2022-07-03T08:55:06;24.20;99.90
41939;DHT22;23057;48.554;14.454;2022-07-03T08:57:40;24.10;99.90
41939;DHT22;23057;48.554;14.454;2022-07-03T09:00:17;24.50;99.90
41939;DHT22;23057;48.554;14.454;2022-07-03T09:02:49;23.60;99.90
41939;DHT22;23057;48.554;14.454;2022-07-03T09:05:20;23.20;99.90
41939;DHT22;23057;48.554;14.454;2022-07-03T09:07:51;23.40;99.90
41939;DHT22;23057;48.554;14.454;2022-07-03T09:10:25;24.10;99.90
41939;DHT22;23057;48.554;14.454;2022-07-03T09:12:56;24.50;99.90
41939;DHT22;23057;48.554;14.454;2022-07-03T09:15:28;25.10;99.90
41939;DHT22;23057;48.554;14.454;2022-07-03T09:18:05;24.80;99.90
41939;DHT22;23057;48.554;14.454;2022-07-03T09:20:40;25.20;99.90
41939;DHT22;23057;48.554;14.454;2022-07-03T09:23:20;24.90;99.90
41939;DHT22;23057;48.554;14.454;2022-07-03T09:26:02;25.40;99.90
41939;DHT22;23057;48.554;14.454;2022-07-03T09:28:47;25.90;99.90
41939;DHT22;23057;48.554;14.454;2022-07-03T09:31:22;25.90;99.90
41939;DHT22;23057;48.554;14.454;2022-07-03T09:34:05;25.30;99.90
41939;DHT22;23057;48.554;14.454;2022-07-03T09:36:47;25.30;99.90
41939;DHT22;23057;48.554;14.454;2022-07-03T09:44:41;26.00;99.90
41939;DHT22;23057;48.554;14.454;2022-07-03T09:47:21;25.60;99.90
41939;DHT22;23057;48.554;14.454;2022-07-03T09:49:59;25.40;99.90
41939;DHT22;23057;48.554;14.454;2022-07-03T09:55:17;25.30;99.90
41939;DHT22;23057;48.554;14.454;2022-07-03T10:00:25;25.70;99.90
41939;DHT22;23057;48.554;14.454;2022-07-03T10:03:03;26.10;99.90
41939;DHT22;23057;48.554;14.454;2022-07-03T10:05:38;26.10;99.90
41939;DHT22;23057;48.554;14.454;2022-07-03T10:08:15;25.80;99.90
41939;DHT22;23057;48.554;14.454;2022-07-03T10:10:48;26.00;99.90
41939;DHT22;23057;48.554;14.454;2022-07-03T10:13:20;26.10;99.90
41939;DHT22;23057;48.554;14.454;2022-07-03T10:15:53;26.20;99.90
41939;DHT22;23057;48.554;14.454;2022-07-03T10:18:27;26.40;99.90
41939;DHT22;23057;48.554;14.454;2022-07-03T10:21:01;26.30;99.90
41939;DHT22;23057;48.554;14.454;2022-07-03T10:23:37;26.40;99.90
41939;DHT22;23057;48.554;14.454;2022-07-03T10:26:09;26.10;99.90
41939;DHT22;23057;48.554;14.454;2022-07-03T10:28:41;26.40;99.90
41939;DHT22;23057;48.554;14.454;2022-07-03T10:31:12;26.40;99.90
41939;DHT22;23057;48.554;14.454;2022-07-03T10:33:44;26.50;99.90
41939;DHT22;23057;48.554;14.454;2022-07-03T10:36:17;25.20;99.90
41939;DHT22;23057;48.554;14.454;2022-07-03T10:38:49;25.50;99.90
41939;DHT22;23057;48.554;14.454;2022-07-03T10:41:42;25.80;99.90
41939;DHT22;23057;48.554;14.454;2022-07-03T10:44:55;25.70;99.90
41939;DHT22;23057;48.554;14.454;2022-07-03T10:47:49;25.80;99.90
41939;DHT22;23057;48.554;14.454;2022-07-03T10:50:22;25.40;99.90
41939;DHT22;23057;48.554;14.454;2022-07-03T10:53:23;25.20;99.90
41939;DHT22;23057;48.554;14.454;2022-07-03T10:56:04;24.90;99.90
41939;DHT22;23057;48.554;14.454;2022-07-03T10:58:54;24.90;99.90
41939;DHT22;23057;48.554;14.454;2022-07-03T11:01:30;25.90;99.90
41939;DHT22;23057;48.554;14.454;2022-07-03T11:04:03;25.60;99.90
41939;DHT22;23057;48.554;14.454;2022-07-03T11:09:14;25.60;99.90
41939;DHT22;23057;48.554;14.454;2022-07-03T11:11:47;26.10;99.90
41939;DHT22;23057;48.554;14.454;2022-07-03T11:14:30;26.60;99.90
41939;DHT22;23057;48.554;14.454;2022-07-03T11:17:20;27.20;99.90
41939;DHT22;23057;48.554;14.454;2022-07-03T11:19:52;27.00;99.90
41939;DHT22;23057;48.554;14.454;2022-07-03T11:26:01;27.80;99.90
41939;DHT22;23057;48.554;14.454;2022-07-03T11:28:53;27.20;99.90
41939;DHT22;23057;48.554;14.454;2022-07-03T11:31:24;27.10;99.90
41939;DHT22;23057;48.554;14.454;2022-07-03T11:34:00;27.30;99.90
41939;DHT22;23057;48.554;14.454;2022-07-03T11:36:32;27.60;99.90
41939;DHT22;23057;48.554;14.454;2022-07-03T11:39:12;27.40;99.90
41939;DHT22;23057;48.554;14.454;2022-07-03T11:41:48;27.60;99.90
41939;DHT22;23057;48.554;14.454;2022-07-03T11:44:20;27.70;99.90
41939;DHT22;23057;48.554;14.454;2022-07-03T11:46:52;27.40;99.90
41939;DHT22;23057;48.554;14.454;2022-07-03T11:49:23;27.30;99.90
41939;DHT22;23057;48.554;14.454;2022-07-03T11:51:59;27.10;99.90
41939;DHT22;23057;48.554;14.454;2022-07-03T11:54:50;27.70;99.90
41939;DHT22;23057;48.554;14.454;2022-07-03T11:57:22;27.80;99.90
41939;DHT22;23057;48.554;14.454;2022-07-03T12:00:03;27.70;99.90
41939;DHT22;23057;48.554;14.454;2022-07-03T12:02:48;27.70;99.90
41939;DHT22;23057;48.554;14.454;2022-07-03T12:05:20;27.50;99.90
41939;DHT22;23057;48.554;14.454;2022-07-03T12:08:04;27.50;99.90
41939;DHT22;23057;48.554;14.454;2022-07-03T12:10:40;27.40;99.90
41939;DHT22;23057;48.554;14.454;2022-07-03T12:13:21;27.50;99.90
41939;DHT22;23057;48.554;14.454;2022-07-03T12:15:54;27.70;99.90
41939;DHT22;23057;48.554;14.454;2022-07-03T12:21:23;27.70;99.90
41939;DHT22;23057;48.554;14.454;2022-07-03T12:23:55;27.70;99.90
41939;DHT22;23057;48.554;14.454;2022-07-03T12:26:36;27.80;99.90
41939;DHT22;23057;48.554;14.454;2022-07-03T12:29:09;27.60;99.90
41939;DHT22;23057;48.554;14.454;2022-07-03T12:31:48;27.50;99.90
41939;DHT22;23057;48.554;14.454;2022-07-03T12:34:20;27.60;99.90
41939;DHT22;23057;48.554;14.454;2022-07-03T12:36:59;27.40;99.90
41939;DHT22;23057;48.554;14.454;2022-07-03T12:39:48;27.50;99.90
41939;DHT22;23057;48.554;14.454;2022-07-03T12:42:21;27.20;99.90
41939;DHT22;23057;48.554;14.454;2022-07-03T12:45:03;27.30;99.90
41939;DHT22;23057;48.554;14.454;2022-07-03T12:47:37;27.30;99.90
41939;DHT22;23057;48.554;14.454;2022-07-03T12:50:09;27.20;99.90
41939;DHT22;23057;48.554;14.454;2022-07-03T12:55:27;27.70;99.90
41939;DHT22;23057;48.554;14.454;2022-07-03T12:58:16;27.60;99.90
41939;DHT22;23057;48.554;14.454;2022-07-03T13:01:34;27.50;99.90
41939;DHT22;23057;48.554;14.454;2022-07-03T13:04:08;27.60;99.90
41939;DHT22;23057;48.554;14.454;2022-07-03T13:06:44;27.70;99.90
41939;DHT22;23057;48.554;14.454;2022-07-03T13:09:24;27.90;99.90
41939;DHT22;23057;48.554;14.454;2022-07-03T13:11:56;27.90;99.90
41939;DHT22;23057;48.554;14.454;2022-07-03T13:14:27;28.00;99.90
41939;DHT22;23057;48.554;14.454;2022-07-03T13:16:58;28.10;99.90
41939;DHT22;23057;48.554;14.454;2022-07-03T13:19:30;27.80;99.90
41939;DHT22;23057;48.554;14.454;2022-07-03T13:22:02;27.60;99.90
41939;DHT22;23057;48.554;14.454;2022-07-03T13:24:33;27.70;99.90
41939;DHT22;23057;48.554;14.454;2022-07-03T13:27:04;27.90;99.90
41939;DHT22;23057;48.554;14.454;2022-07-03T13:29:35;27.70;99.90
41939;DHT22;23057;48.554;14.454;2022-07-03T13:32:06;27.80;99.90
41939;DHT22;23057;48.554;14.454;2022-07-03T13:34:37;27.70;99.90
41939;DHT22;23057;48.554;14.454;2022-07-03T13:37:08;27.80;99.90
41939;DHT22;23057;48.554;14.454;2022-07-03T13:39:39;27.90;99.90
41939;DHT22;23057;48.554;14.454;2022-07-03T13:42:10;28.00;99.90
41939;DHT22;23057;48.554;14.454;2022-07-03T13:44:41;28.20;99.90
41939;DHT22;23057;48.554;14.454;2022-07-03T13:47:12;28.10;99.90
41939;DHT22;23057;48.554;14.454;2022-07-03T13:49:43;28.30;99.90
41939;DHT22;23057;48.554;14.454;2022-07-03T13:52:14;28.10;99.90
41939;DHT22;23057;48.554;14.454;2022-07-03T13:54:45;27.90;99.90
41939;DHT22;23057;48.554;14.454;2022-07-03T13:57:16;27.80;99.90
41939;DHT22;23057;48.554;14.454;2022-07-03T13:59:48;27.80;99.90
41939;DHT22;23057;48.554;14.454;2022-07-03T14:02:19;27.90;99.90
41939;DHT22;23057;48.554;14.454;2022-07-03T14:04:49;27.90;99.90
41939;DHT22;23057;48.554;14.454;2022-07-03T14:07:20;28.00;99.90
41939;DHT22;23057;48.554;14.454;2022-07-03T14:09:51;28.10;99.90
41939;DHT22;23057;48.554;14.454;2022-07-03T14:12:22;28.00;99.90
41939;DHT22;23057;48.554;14.454;2022-07-03T14:14:53;28.40;99.90
41939;DHT22;23057;48.554;14.454;2022-07-03T14:17:24;28.30;99.90
41939;DHT22;23057;48.554;14.454;2022-07-03T14:19:57;28.20;99.90
41939;DHT22;23057;48.554;14.454;2022-07-03T14:22:28;28.10;99.90
41939;DHT22;23057;48.554;14.454;2022-07-03T14:24:59;28.20;99.90
41939;DHT22;23057;48.554;14.454;2022-07-03T14:27:30;28.00;99.90
41939;DHT22;23057;48.554;14.454;2022-07-03T14:30:20;28.00;99.90
41939;DHT22;23057;48.554;14.454;2022-07-03T14:33:09;27.90;99.90
41939;DHT22;23057;48.554;14.454;2022-07-03T14:35:40;27.60;99.90
41939;DHT22;23057;48.554;14.454;2022-07-03T14:38:11;27.20;99.90
41939;DHT22;23057;48.554;14.454;2022-07-03T14:40:43;27.30;99.90
41939;DHT22;23057;48.554;14.454;2022-07-03T14:43:13;27.60;99.90
41939;DHT22;23057;48.554;14.454;2022-07-03T14:45:44;27.60;99.90
41939;DHT22;23057;48.554;14.454;2022-07-03T14:48:15;27.70;99.90
41939;DHT22;23057;48.554;14.454;2022-07-03T14:50:46;27.50;99.90
41939;DHT22;23057;48.554;14.454;2022-07-03T14:53:19;27.40;99.90
41939;DHT22;23057;48.554;14.454;2022-07-03T14:55:53;27.00;99.90
41939;DHT22;23057;48.554;14.454;2022-07-03T14:58:27;27.00;99.90
41939;DHT22;23057;48.554;14.454;2022-07-03T15:01:05;27.30;99.90
41939;DHT22;23057;48.554;14.454;2022-07-03T15:03:53;27.40;99.90
41939;DHT22;23057;48.554;14.454;2022-07-03T15:06:31;27.50;99.90
41939;DHT22;23057;48.554;14.454;2022-07-03T15:09:03;27.40;99.90
41939;DHT22;23057;48.554;14.454;2022-07-03T15:11:39;27.60;99.90
41939;DHT22;23057;48.554;14.454;2022-07-03T15:14:42;27.50;99.90
41939;DHT22;23057;48.554;14.454;2022-07-03T15:17:14;27.50;99.90
41939;DHT22;23057;48.554;14.454;2022-07-03T15:19:47;27.60;99.90
41939;DHT22;23057;48.554;14.454;2022-07-03T15:22:22;27.50;99.90
41939;DHT22;23057;48.554;14.454;2022-07-03T15:24:57;27.50;99.90
41939;DHT22;23057;48.554;14.454;2022-07-03T15:27:30;27.60;99.90
41939;DHT22;23057;48.554;14.454;2022-07-03T15:30:02;27.50;99.90
41939;DHT22;23057;48.554;14.454;2022-07-03T15:32:36;27.60;99.90
41939;DHT22;23057;48.554;14.454;2022-07-03T15:35:08;27.60;99.90
41939;DHT22;23057;48.554;14.454;2022-07-03T15:38:13;27.50;99.90
41939;DHT22;23057;48.554;14.454;2022-07-03T15:40:52;27.40;99.90
41939;DHT22;23057;48.554;14.454;2022-07-03T15:46:51;27.30;99.90
41939;DHT22;23057;48.554;14.454;2022-07-03T15:49:40;27.10;99.90
41939;DHT22;23057;48.554;14.454;2022-07-03T15:52:20;27.10;99.90
41939;DHT22;23057;48.554;14.454;2022-07-03T15:57:57;27.10;99.90
41939;DHT22;23057;48.554;14.454;2022-07-03T16:00:37;27.10;99.90
41939;DHT22;23057;48.554;14.454;2022-07-03T16:03:26;27.10;99.90
41939;DHT22;23057;48.554;14.454;2022-07-03T16:06:05;27.00;99.90
41939;DHT22;23057;48.554;14.454;2022-07-03T16:08:41;27.00;99.90
41939;DHT22;23057;48.554;14.454;2022-07-03T16:11:19;27.10;99.90
41939;DHT22;23057;48.554;14.454;2022-07-03T16:13:52;27.00;99.90
41939;DHT22;23057;48.554;14.454;2022-07-03T16:16:26;26.90;99.90
41939;DHT22;23057;48.554;14.454;2022-07-03T16:19:04;26.80;99.90
41939;DHT22;23057;48.554;14.454;2022-07-03T16:21:37;26.90;99.90
41939;DHT22;23057;48.554;14.454;2022-07-03T16:24:09;26.80;99.90
41939;DHT22;23057;48.554;14.454;2022-07-03T16:26:42;26.70;99.90
41939;DHT22;23057;48.554;14.454;2022-07-03T16:29:13;26.70;99.90
41939;DHT22;23057;48.554;14.454;2022-07-03T16:31:49;26.80;99.90
41939;DHT22;23057;48.554;14.454;2022-07-03T16:34:24;26.70;99.90
41939;DHT22;23057;48.554;14.454;2022-07-03T16:37:13;26.70;99.90
41939;DHT22;23057;48.554;14.454;2022-07-03T16:39:57;26.60;99.90
41939;DHT22;23057;48.554;14.454;2022-07-03T16:42:36;26.50;99.90
41939;DHT22;23057;48.554;14.454;2022-07-03T16:45:14;26.50;99.90
41939;DHT22;23057;48.554;14.454;2022-07-03T16:47:48;26.50;99.90
41939;DHT22;23057;48.554;14.454;2022-07-03T16:50:22;26.50;99.90
41939;DHT22;23057;48.554;14.454;2022-07-03T16:52:54;26.50;99.90
41939;DHT22;23057;48.554;14.454;2022-07-03T16:55:24;26.40;99.90
41939;DHT22;23057;48.554;14.454;2022-07-03T16:57:56;26.40;99.90
41939;DHT22;23057;48.554;14.454;2022-07-03T17:00:29;26.30;99.90
41939;DHT22;23057;48.554;14.454;2022-07-03T17:03:02;26.30;99.90
41939;DHT22;23057;48.554;14.454;2022-07-03T17:05:36;26.20;99.90
41939;DHT22;23057;48.554;14.454;2022-07-03T17:08:08;26.20;99.90